sensor_id;sensor_type;location;lat;lon;timestamp;pressure;altitude;pressure_sealevel;temperature;humidity
14393;BME280;7281;42.678;23.372;2022-09-12T00:02:06;94879.44;;;21.17;51.79
14393;BME280;7281;42.678;23.372;2022-09-12T00:04:33;94884.47;;;20.72;52.51
14393;BME280;7281;42.678;23.372;2022-09-12T00:06:59;94883.03;;;20.75;52.48
14393;BME280;7281;42.678;23.372;2022-09-12T00:09:26;94893.00;;;21.03;51.76
14393;BME280;7281;42.678;23.372;2022-09-12T00:11:53;94893.41;;;20.68;52.67
14393;BME280;7281;42.678;23.372;2022-09-12T00:14:20;94891.41;;;21.11;51.63
14393;BME280;7281;42.678;23.372;2022-09-12T00:16:47;94886.41;;;21.01;51.34
14393;BME280;7281;42.678;23.372;2022-09-12T00:19:14;94897.22;;;20.58;52.93
14393;BME280;7281;42.678;23.372;2022-09-12T00:21:40;94892.72;;;20.33;53.09
14393;BME280;7281;42.678;23.372;2022-09-12T00:24:09;94900.19;;;20.48;52.93
14393;BME280;7281;42.678;23.372;2022-09-12T00:26:36;94899.53;;;20.68;51.80
14393;BME280;7281;42.678;23.372;2022-09-12T00:29:03;94901.63;;;20.92;51.52
14393;BME280;7281;42.678;23.372;2022-09-12T00:31:30;94895.06;;;19.75;54.50
14393;BME280;7281;42.678;23.372;2022-09-12T00:33:59;94899.91;;;20.41;53.24
14393;BME280;7281;42.678;23.372;2022-09-12T00:36:29;94896.06;;;20.76;52.16
14393;BME280;7281;42.678;23.372;2022-09-12T00:38:56;94891.13;;;20.41;52.86
14393;BME280;7281;42.678;23.372;2022-09-12T00:41:33;94896.97;;;20.17;52.98
14393;BME280;7281;42.678;23.372;2022-09-12T00:44:02;94898.03;;;20.33;52.71
14393;BME280;7281;42.678;23.372;2022-09-12T00:49:23;94903.69;;;20.86;50.90
14393;BME280;7281;42.678;23.372;2022-09-12T00:52:05;94905.38;;;20.45;51.48
14393;BME280;7281;42.678;23.372;2022-09-12T00:54:43;94895.38;;;20.42;51.72
14393;BME280;7281;42.678;23.372;2022-09-12T00:57:14;94902.59;;;20.07;52.51
14393;BME280;7281;42.678;23.372;2022-09-12T00:59:48;94893.75;;;20.58;51.21
14393;BME280;7281;42.678;23.372;2022-09-12T01:02:16;94896.16;;;19.91;52.57
14393;BME280;7281;42.678;23.372;2022-09-12T01:04:43;94884.56;;;20.04;52.16
14393;BME280;7281;42.678;23.372;2022-09-12T01:07:11;94887.72;;;19.97;52.71
14393;BME280;7281;42.678;23.372;2022-09-12T01:09:40;94888.19;;;19.74;53.02
14393;BME280;7281;42.678;23.372;2022-09-12T01:12:08;94879.91;;;19.84;52.96
14393;BME280;7281;42.678;23.372;2022-09-12T01:14:37;94879.91;;;20.18;52.14
14393;BME280;7281;42.678;23.372;2022-09-12T01:17:04;94875.81;;;20.12;52.10
14393;BME280;7281;42.678;23.372;2022-09-12T01:38:59;94884.88;;;20.11;51.19
14393;BME280;7281;42.678;23.372;2022-09-12T01:46:49;94884.56;;;20.04;51.04
14393;BME280;7281;42.678;23.372;2022-09-12T01:49:32;94878.81;;;20.19;50.73
14393;BME280;7281;42.678;23.372;2022-09-12T01:52:23;94873.25;;;20.58;50.13
14393;BME280;7281;42.678;23.372;2022-09-12T01:57:28;94870.66;;;19.98;51.33
14393;BME280;7281;42.678;23.372;2022-09-12T02:00:05;94852.19;;;20.02;50.87
14393;BME280;7281;42.678;23.372;2022-09-12T02:03:01;94866.13;;;19.99;51.14
14393;BME280;7281;42.678;23.372;2022-09-12T02:05:36;94856.41;;;19.35;52.16
14393;BME280;7281;42.678;23.372;2022-09-12T02:08:12;94857.81;;;20.09;51.27
14393;BME280;7281;42.678;23.372;2022-09-12T02:11:04;94855.50;;;19.99;50.80
14393;BME280;7281;42.678;23.372;2022-09-12T02:13:45;94870.97;;;20.23;50.40
14393;BME280;7281;42.678;23.372;2022-09-12T02:16:22;94874.41;;;20.32;49.98
14393;BME280;7281;42.678;23.372;2022-09-12T02:18:54;94870.97;;;20.14;50.40
14393;BME280;7281;42.678;23.372;2022-09-12T02:21:24;94876.75;;;19.99;50.67
14393;BME280;7281;42.678;23.372;2022-09-12T02:23:56;94874.59;;;19.67;51.30
14393;BME280;7281;42.678;23.372;2022-09-12T02:26:40;94879.13;;;19.83;51.04
14393;BME280;7281;42.678;23.372;2022-09-12T02:29:08;94867.38;;;19.93;50.64
14393;BME280;7281;42.678;23.372;2022-09-12T02:31:37;94873.00;;;19.66;51.31
14393;BME280;7281;42.678;23.372;2022-09-12T02:34:44;94874.56;;;20.01;50.69
14393;BME280;7281;42.678;23.372;2022-09-12T02:39:58;94874.28;;;19.94;50.02
14393;BME280;7281;42.678;23.372;2022-09-12T02:42:26;94873.81;;;20.17;50.06
14393;BME280;7281;42.678;23.372;2022-09-12T02:44:55;94885.97;;;20.36;49.17
14393;BME280;7281;42.678;23.372;2022-09-12T02:49:58;94875.31;;;20.53;48.49
14393;BME280;7281;42.678;23.372;2022-09-12T02:52:26;94879.56;;;20.45;48.89
14393;BME280;7281;42.678;23.372;2022-09-12T02:54:55;94879.44;;;20.25;49.08
14393;BME280;7281;42.678;23.372;2022-09-12T02:57:23;94882.38;;;20.14;49.06
14393;BME280;7281;42.678;23.372;2022-09-12T02:59:53;94888.13;;;20.59;48.49
14393;BME280;7281;42.678;23.372;2022-09-12T03:02:26;94899.03;;;20.75;47.78
14393;BME280;7281;42.678;23.372;2022-09-12T03:05:25;94902.28;;;20.80;47.79
14393;BME280;7281;42.678;23.372;2022-09-12T03:08:01;94904.19;;;20.71;47.81
14393;BME280;7281;42.678;23.372;2022-09-12T03:13:57;94883.97;;;19.98;48.94
14393;BME280;7281;42.678;23.372;2022-09-12T03:19:28;94894.00;;;20.27;48.72
14393;BME280;7281;42.678;23.372;2022-09-12T03:24:37;94889.56;;;20.48;48.10
14393;BME280;7281;42.678;23.372;2022-09-12T03:27:18;94891.47;;;20.05;49.17
14393;BME280;7281;42.678;23.372;2022-09-12T03:29:47;94879.13;;;20.17;48.88
14393;BME280;7281;42.678;23.372;2022-09-12T03:32:14;94889.44;;;20.02;49.05
14393;BME280;7281;42.678;23.372;2022-09-12T03:34:41;94884.13;;;19.59;50.06
14393;BME280;7281;42.678;23.372;2022-09-12T03:37:08;94898.03;;;19.99;49.29
14393;BME280;7281;42.678;23.372;2022-09-12T03:39:35;94895.84;;;19.67;49.87
14393;BME280;7281;42.678;23.372;2022-09-12T03:42:02;94888.00;;;20.13;48.94
14393;BME280;7281;42.678;23.372;2022-09-12T03:44:29;94883.81;;;19.52;50.02
14393;BME280;7281;42.678;23.372;2022-09-12T03:46:56;94892.09;;;19.68;50.20
14393;BME280;7281;42.678;23.372;2022-09-12T03:49:22;94894.28;;;19.83;49.78
14393;BME280;7281;42.678;23.372;2022-09-12T03:51:49;94897.25;;;19.90;49.48
14393;BME280;7281;42.678;23.372;2022-09-12T03:54:16;94889.91;;;19.70;50.08
14393;BME280;7281;42.678;23.372;2022-09-12T03:56:43;94891.00;;;19.69;50.51
14393;BME280;7281;42.678;23.372;2022-09-12T03:59:10;94892.69;;;19.48;51.10
14393;BME280;7281;42.678;23.372;2022-09-12T04:01:36;94896.91;;;19.40;50.62
14393;BME280;7281;42.678;23.372;2022-09-12T04:04:03;94903.81;;;19.58;50.56
14393;BME280;7281;42.678;23.372;2022-09-12T04:06:30;94878.31;;;19.66;50.21
14393;BME280;7281;42.678;23.372;2022-09-12T04:08:58;94907.91;;;20.15;49.53
14393;BME280;7281;42.678;23.372;2022-09-12T04:11:24;94900.69;;;19.73;50.21
14393;BME280;7281;42.678;23.372;2022-09-12T04:13:51;94897.38;;;19.34;50.67
14393;BME280;7281;42.678;23.372;2022-09-12T04:16:18;94893.03;;;19.72;49.96
14393;BME280;7281;42.678;23.372;2022-09-12T04:18:46;94897.09;;;19.52;50.29
14393;BME280;7281;42.678;23.372;2022-09-12T04:21:18;94913.84;;;19.13;51.11
14393;BME280;7281;42.678;23.372;2022-09-12T04:23:45;94894.13;;;19.71;50.05
14393;BME280;7281;42.678;23.372;2022-09-12T04:26:12;94904.63;;;19.76;49.83
14393;BME280;7281;42.678;23.372;2022-09-12T04:28:40;94898.81;;;19.82;49.48
14393;BME280;7281;42.678;23.372;2022-09-12T04:31:10;94907.13;;;19.81;49.64
14393;BME280;7281;42.678;23.372;2022-09-12T04:33:38;94908.88;;;20.20;48.90
14393;BME280;7281;42.678;23.372;2022-09-12T04:36:10;94906.81;;;20.08;49.12
14393;BME280;7281;42.678;23.372;2022-09-12T04:38:40;94909.00;;;19.72;49.64
14393;BME280;7281;42.678;23.372;2022-09-12T04:43:41;94903.66;;;19.55;50.41
14393;BME280;7281;42.678;23.372;2022-09-12T04:46:10;94906.81;;;19.82;49.92
14393;BME280;7281;42.678;23.372;2022-09-12T04:48:37;94911.81;;;19.84;49.83
14393;BME280;7281;42.678;23.372;2022-09-12T04:51:12;94916.81;;;19.94;49.38
14393;BME280;7281;42.678;23.372;2022-09-12T04:53:40;94920.22;;;19.52;50.63
14393;BME280;7281;42.678;23.372;2022-09-12T04:56:08;94902.53;;;20.50;48.43
14393;BME280;7281;42.678;23.372;2022-09-12T04:58:35;94918.25;;;20.17;49.24
14393;BME280;7281;42.678;23.372;2022-09-12T05:01:04;94914.63;;;20.30;48.97
14393;BME280;7281;42.678;23.372;2022-09-12T05:03:32;94910.56;;;20.24;49.15
14393;BME280;7281;42.678;23.372;2022-09-12T05:06:02;94914.94;;;20.03;49.61
14393;BME280;7281;42.678;23.372;2022-09-12T05:08:29;94918.53;;;19.81;50.04
14393;BME280;7281;42.678;23.372;2022-09-12T05:11:01;94923.72;;;19.78;50.00
14393;BME280;7281;42.678;23.372;2022-09-12T05:13:32;94925.97;;;19.37;51.15
14393;BME280;7281;42.678;23.372;2022-09-12T05:16:01;94917.75;;;20.06;49.40
14393;BME280;7281;42.678;23.372;2022-09-12T05:18:30;94924.03;;;20.19;49.39
14393;BME280;7281;42.678;23.372;2022-09-12T05:20:59;94923.56;;;20.34;48.49
14393;BME280;7281;42.678;23.372;2022-09-12T05:23:27;94914.28;;;20.14;48.95
14393;BME280;7281;42.678;23.372;2022-09-12T05:25:56;94916.47;;;20.55;48.23
14393;BME280;7281;42.678;23.372;2022-09-12T05:28:24;94914.63;;;20.13;48.58
14393;BME280;7281;42.678;23.372;2022-09-12T05:31:01;94917.63;;;20.29;48.58
14393;BME280;7281;42.678;23.372;2022-09-12T05:33:29;94926.34;;;19.61;49.69
14393;BME280;7281;42.678;23.372;2022-09-12T05:35:56;94914.00;;;19.99;48.72
14393;BME280;7281;42.678;23.372;2022-09-12T05:38:23;94920.25;;;20.37;48.47
14393;BME280;7281;42.678;23.372;2022-09-12T05:41:10;94919.31;;;20.16;48.51
14393;BME280;7281;42.678;23.372;2022-09-12T05:43:45;94921.66;;;20.52;47.78
14393;BME280;7281;42.678;23.372;2022-09-12T05:46:17;94928.88;;;20.17;48.46
14393;BME280;7281;42.678;23.372;2022-09-12T05:48:46;94916.50;;;20.04;48.80
14393;BME280;7281;42.678;23.372;2022-09-12T05:51:18;94915.97;;;20.70;47.59
14393;BME280;7281;42.678;23.372;2022-09-12T05:53:57;94899.63;;;20.89;46.68
14393;BME280;7281;42.678;23.372;2022-09-12T05:56:27;94899.56;;;21.06;46.23
14393;BME280;7281;42.678;23.372;2022-09-12T05:58:58;94909.94;;;21.37;45.98
14393;BME280;7281;42.678;23.372;2022-09-12T06:01:27;94894.56;;;21.34;46.03
14393;BME280;7281;42.678;23.372;2022-09-12T06:03:58;94891.53;;;21.64;45.30
14393;BME280;7281;42.678;23.372;2022-09-12T06:06:28;94895.09;;;21.77;44.95
14393;BME280;7281;42.678;23.372;2022-09-12T06:08:57;94886.16;;;21.73;44.58
14393;BME280;7281;42.678;23.372;2022-09-12T06:11:26;94891.59;;;21.56;45.94
14393;BME280;7281;42.678;23.372;2022-09-12T06:13:55;94885.00;;;22.36;44.17
14393;BME280;7281;42.678;23.372;2022-09-12T06:16:31;94841.53;;;21.61;44.24
14393;BME280;7281;42.678;23.372;2022-09-12T06:19:03;94885.53;;;21.96;44.37
14393;BME280;7281;42.678;23.372;2022-09-12T06:21:32;94893.94;;;21.37;45.08
14393;BME280;7281;42.678;23.372;2022-09-12T06:24:01;94887.56;;;21.50;44.60
14393;BME280;7281;42.678;23.372;2022-09-12T06:26:28;94886.66;;;21.66;44.97
14393;BME280;7281;42.678;23.372;2022-09-12T06:28:57;94899.25;;;21.37;44.99
14393;BME280;7281;42.678;23.372;2022-09-12T06:31:27;94905.72;;;21.56;45.58
14393;BME280;7281;42.678;23.372;2022-09-12T06:33:58;94907.53;;;21.14;45.73
14393;BME280;7281;42.678;23.372;2022-09-12T06:36:28;94910.66;;;21.17;45.88
14393;BME280;7281;42.678;23.372;2022-09-12T06:39:01;94920.13;;;21.35;45.66
14393;BME280;7281;42.678;23.372;2022-09-12T06:41:29;94914.22;;;21.50;45.75
14393;BME280;7281;42.678;23.372;2022-09-12T06:43:57;94917.47;;;22.05;44.67
14393;BME280;7281;42.678;23.372;2022-09-12T06:46:24;94919.56;;;22.20;44.76
14393;BME280;7281;42.678;23.372;2022-09-12T06:48:52;94917.22;;;21.98;45.29
14393;BME280;7281;42.678;23.372;2022-09-12T06:51:20;94920.81;;;22.02;44.68
14393;BME280;7281;42.678;23.372;2022-09-12T06:53:48;94923.31;;;22.52;44.97
14393;BME280;7281;42.678;23.372;2022-09-12T06:56:19;94920.25;;;21.88;44.86
14393;BME280;7281;42.678;23.372;2022-09-12T06:58:49;94929.72;;;22.06;44.55
14393;BME280;7281;42.678;23.372;2022-09-12T07:01:18;94929.00;;;22.50;44.25
14393;BME280;7281;42.678;23.372;2022-09-12T07:03:50;94931.19;;;22.36;43.86
14393;BME280;7281;42.678;23.372;2022-09-12T07:06:21;94936.13;;;21.64;44.62
14393;BME280;7281;42.678;23.372;2022-09-12T07:08:48;94938.13;;;21.38;45.26
14393;BME280;7281;42.678;23.372;2022-09-12T07:11:23;94894.56;;;21.34;45.32
14393;BME280;7281;42.678;23.372;2022-09-12T07:13:55;94940.25;;;21.53;45.41
14393;BME280;7281;42.678;23.372;2022-09-12T07:16:22;94941.88;;;22.15;44.41
14393;BME280;7281;42.678;23.372;2022-09-12T07:18:51;94944.06;;;22.87;44.02
14393;BME280;7281;42.678;23.372;2022-09-12T07:21:19;94937.78;;;22.71;43.68
14393;BME280;7281;42.678;23.372;2022-09-12T07:23:46;94948.53;;;22.95;43.81
14393;BME280;7281;42.678;23.372;2022-09-12T07:26:14;94946.03;;;22.25;43.03
14393;BME280;7281;42.678;23.372;2022-09-12T07:28:42;94932.22;;;22.64;43.58
14393;BME280;7281;42.678;23.372;2022-09-12T07:31:15;94936.50;;;23.01;42.09
14393;BME280;7281;42.678;23.372;2022-09-12T07:33:43;94930.19;;;23.18;41.66
14393;BME280;7281;42.678;23.372;2022-09-12T07:36:14;94927.69;;;23.01;43.10
14393;BME280;7281;42.678;23.372;2022-09-12T07:38:42;94926.81;;;23.09;40.83
14393;BME280;7281;42.678;23.372;2022-09-12T07:41:11;94912.69;;;23.69;40.88
14393;BME280;7281;42.678;23.372;2022-09-12T07:43:38;94909.72;;;23.98;40.80
14393;BME280;7281;42.678;23.372;2022-09-12T07:46:05;94925.41;;;23.36;39.56
14393;BME280;7281;42.678;23.372;2022-09-12T07:48:32;94934.63;;;23.14;39.92
14393;BME280;7281;42.678;23.372;2022-09-12T07:51:01;94922.59;;;23.20;40.28
14393;BME280;7281;42.678;23.372;2022-09-12T07:53:35;94925.41;;;23.72;39.45
14393;BME280;7281;42.678;23.372;2022-09-12T07:56:03;94920.31;;;24.46;38.56
14393;BME280;7281;42.678;23.372;2022-09-12T07:58:32;94926.69;;;24.14;38.78
14393;BME280;7281;42.678;23.372;2022-09-12T08:01:07;94922.38;;;23.61;38.30
14393;BME280;7281;42.678;23.372;2022-09-12T08:03:39;94921.16;;;23.71;37.61
14393;BME280;7281;42.678;23.372;2022-09-12T08:06:07;94921.84;;;23.68;38.43
14393;BME280;7281;42.678;23.372;2022-09-12T08:08:34;94927.09;;;24.16;38.68
14393;BME280;7281;42.678;23.372;2022-09-12T08:11:04;94919.69;;;24.25;37.76
14393;BME280;7281;42.678;23.372;2022-09-12T08:13:33;94927.16;;;24.59;37.80
14393;BME280;7281;42.678;23.372;2022-09-12T08:16:04;94924.59;;;24.63;37.80
14393;BME280;7281;42.678;23.372;2022-09-12T08:18:33;94925.13;;;24.41;37.94
14393;BME280;7281;42.678;23.372;2022-09-12T08:21:03;94924.97;;;24.49;37.38
14393;BME280;7281;42.678;23.372;2022-09-12T08:23:31;94927.28;;;24.35;37.74
14393;BME280;7281;42.678;23.372;2022-09-12T08:25:59;94920.03;;;23.84;38.02
14393;BME280;7281;42.678;23.372;2022-09-12T08:28:33;94932.78;;;23.51;38.02
14393;BME280;7281;42.678;23.372;2022-09-12T08:33:28;94924.38;;;23.88;38.83
14393;BME280;7281;42.678;23.372;2022-09-12T08:36:15;94918.53;;;23.98;38.01
14393;BME280;7281;42.678;23.372;2022-09-12T08:38:44;94917.75;;;24.10;38.17
14393;BME280;7281;42.678;23.372;2022-09-12T08:41:20;94921.03;;;24.59;37.68
14393;BME280;7281;42.678;23.372;2022-09-12T08:47:24;94923.81;;;24.35;37.51
14393;BME280;7281;42.678;23.372;2022-09-12T08:55:25;94917.81;;;23.62;38.84
14393;BME280;7281;42.678;23.372;2022-09-12T08:57:53;94914.06;;;23.63;38.75
14393;BME280;7281;42.678;23.372;2022-09-12T09:00:20;94909.56;;;23.67;38.17
14393;BME280;7281;42.678;23.372;2022-09-12T09:03:03;94919.56;;;23.82;38.02
14393;BME280;7281;42.678;23.372;2022-09-12T09:08:23;94898.78;;;24.15;37.03
14393;BME280;7281;42.678;23.372;2022-09-12T09:11:52;94900.53;;;24.23;36.47
14393;BME280;7281;42.678;23.372;2022-09-12T09:16:55;94895.75;;;24.44;36.04
14393;BME280;7281;42.678;23.372;2022-09-12T09:19:39;94899.94;;;24.57;36.50
14393;BME280;7281;42.678;23.372;2022-09-12T09:22:41;94893.22;;;24.63;35.95
14393;BME280;7281;42.678;23.372;2022-09-12T09:25:20;94893.50;;;24.89;36.82
14393;BME280;7281;42.678;23.372;2022-09-12T09:28:06;94893.63;;;25.08;35.49
14393;BME280;7281;42.678;23.372;2022-09-12T09:30:35;94882.38;;;25.03;35.70
14393;BME280;7281;42.678;23.372;2022-09-12T09:33:04;94871.75;;;25.57;34.76
14393;BME280;7281;42.678;23.372;2022-09-12T09:35:46;94869.13;;;25.76;35.42
14393;BME280;7281;42.678;23.372;2022-09-12T09:39:08;94878.75;;;24.95;34.71
14393;BME280;7281;42.678;23.372;2022-09-12T09:41:34;94874.84;;;25.74;34.34
14393;BME280;7281;42.678;23.372;2022-09-12T09:44:04;94870.66;;;25.77;35.37
14393;BME280;7281;42.678;23.372;2022-09-12T09:46:36;94874.03;;;25.24;34.92
14393;BME280;7281;42.678;23.372;2022-09-12T09:49:05;94858.97;;;25.35;34.13
14393;BME280;7281;42.678;23.372;2022-09-12T09:51:38;94884.25;;;25.34;34.16
14393;BME280;7281;42.678;23.372;2022-09-12T09:56:44;94875.63;;;24.93;35.27
14393;BME280;7281;42.678;23.372;2022-09-12T10:01:58;94862.97;;;26.52;33.50
14393;BME280;7281;42.678;23.372;2022-09-12T10:04:32;94862.78;;;26.03;33.43
14393;BME280;7281;42.678;23.372;2022-09-12T10:07:17;94857.97;;;27.15;32.89
14393;BME280;7281;42.678;23.372;2022-09-12T10:10:05;94868.41;;;26.55;33.56
14393;BME280;7281;42.678;23.372;2022-09-12T10:12:33;94859.56;;;26.32;33.05
14393;BME280;7281;42.678;23.372;2022-09-12T10:15:12;94844.66;;;26.57;32.84
14393;BME280;7281;42.678;23.372;2022-09-12T10:17:43;94835.34;;;26.51;33.19
14393;BME280;7281;42.678;23.372;2022-09-12T10:22:59;94847.44;;;26.83;32.17
14393;BME280;7281;42.678;23.372;2022-09-12T10:25:26;94836.91;;;26.33;31.86
14393;BME280;7281;42.678;23.372;2022-09-12T10:27:56;94853.06;;;26.14;33.21
14393;BME280;7281;42.678;23.372;2022-09-12T10:30:25;94844.22;;;26.74;32.60
14393;BME280;7281;42.678;23.372;2022-09-12T10:33:04;94849.22;;;26.15;33.54
14393;BME280;7281;42.678;23.372;2022-09-12T10:35:47;94862.78;;;26.60;33.99
14393;BME280;7281;42.678;23.372;2022-09-12T10:38:25;94856.31;;;26.23;33.60
14393;BME280;7281;42.678;23.372;2022-09-12T10:41:03;94872.25;;;26.35;32.89
14393;BME280;7281;42.678;23.372;2022-09-12T10:43:40;94851.50;;;26.32;32.83
14393;BME280;7281;42.678;23.372;2022-09-12T10:48:52;94852.56;;;25.55;32.39
14393;BME280;7281;42.678;23.372;2022-09-12T10:51:37;94843.97;;;25.84;32.62
14393;BME280;7281;42.678;23.372;2022-09-12T10:54:08;94853.19;;;26.82;30.67
14393;BME280;7281;42.678;23.372;2022-09-12T10:57:16;94854.31;;;26.81;30.74
14393;BME280;7281;42.678;23.372;2022-09-12T11:00:08;94856.56;;;25.99;31.31
14393;BME280;7281;42.678;23.372;2022-09-12T11:03:22;94852.34;;;26.59;31.49
14393;BME280;7281;42.678;23.372;2022-09-12T11:05:58;94856.41;;;26.91;31.14
14393;BME280;7281;42.678;23.372;2022-09-12T11:14:10;94854.34;;;26.20;32.24
14393;BME280;7281;42.678;23.372;2022-09-12T11:16:55;94865.38;;;25.80;33.68
14393;BME280;7281;42.678;23.372;2022-09-12T11:30:20;94855.75;;;26.56;31.83
14393;BME280;7281;42.678;23.372;2022-09-12T11:45:53;94850.22;;;26.26;32.68
14393;BME280;7281;42.678;23.372;2022-09-12T11:51:24;94855.28;;;25.74;32.49
14393;BME280;7281;42.678;23.372;2022-09-12T11:54:03;94864.34;;;26.04;32.21
14393;BME280;7281;42.678;23.372;2022-09-12T11:56:40;94855.03;;;25.98;32.23
14393;BME280;7281;42.678;23.372;2022-09-12T11:59:14;94856.56;;;26.56;32.11
14393;BME280;7281;42.678;23.372;2022-09-12T12:01:46;94861.91;;;27.21;31.23
14393;BME280;7281;42.678;23.372;2022-09-12T12:04:19;94866.97;;;27.03;30.63
14393;BME280;7281;42.678;23.372;2022-09-12T12:07:00;94854.75;;;27.06;30.89
14393;BME280;7281;42.678;23.372;2022-09-12T12:09:29;94857.78;;;26.21;32.25
14393;BME280;7281;42.678;23.372;2022-09-12T12:12:00;94849.34;;;26.60;31.68
14393;BME280;7281;42.678;23.372;2022-09-12T12:14:39;94844.94;;;27.17;30.97
14393;BME280;7281;42.678;23.372;2022-09-12T12:17:14;94837.78;;;27.54;31.99
14393;BME280;7281;42.678;23.372;2022-09-12T12:19:42;94832.63;;;27.68;30.43
14393;BME280;7281;42.678;23.372;2022-09-12T12:22:19;94832.38;;;28.06;30.22
14393;BME280;7281;42.678;23.372;2022-09-12T12:33:00;94846.13;;;26.32;29.43
14393;BME280;7281;42.678;23.372;2022-09-12T12:36:00;94829.72;;;27.28;29.54
14393;BME280;7281;42.678;23.372;2022-09-12T12:38:35;94834.16;;;26.30;30.40
14393;BME280;7281;42.678;23.372;2022-09-12T12:43:52;94840.97;;;26.65;30.93
14393;BME280;7281;42.678;23.372;2022-09-12T12:46:24;94835.47;;;26.58;31.01
14393;BME280;7281;42.678;23.372;2022-09-12T12:49:06;94835.44;;;27.49;30.10
14393;BME280;7281;42.678;23.372;2022-09-12T12:54:29;94829.53;;;27.66;30.23
14393;BME280;7281;42.678;23.372;2022-09-12T12:57:23;94838.03;;;27.19;30.05
14393;BME280;7281;42.678;23.372;2022-09-12T12:59:51;94823.31;;;27.62;29.91
14393;BME280;7281;42.678;23.372;2022-09-12T13:02:31;94846.19;;;27.49;29.73
14393;BME280;7281;42.678;23.372;2022-09-12T13:05:03;94833.25;;;27.87;29.42
14393;BME280;7281;42.678;23.372;2022-09-12T13:07:35;94841.53;;;27.46;30.23
14393;BME280;7281;42.678;23.372;2022-09-12T13:10:06;94841.59;;;27.49;30.04
14393;BME280;7281;42.678;23.372;2022-09-12T13:12:36;94843.53;;;27.26;30.01
14393;BME280;7281;42.678;23.372;2022-09-12T13:15:45;94839.03;;;27.86;29.68
14393;BME280;7281;42.678;23.372;2022-09-12T13:18:23;94850.63;;;26.28;31.86
14393;BME280;7281;42.678;23.372;2022-09-12T13:21:03;94849.09;;;26.08;32.11
14393;BME280;7281;42.678;23.372;2022-09-12T13:23:34;94827.53;;;27.63;30.51
14393;BME280;7281;42.678;23.372;2022-09-12T13:26:02;94844.25;;;27.23;30.67
14393;BME280;7281;42.678;23.372;2022-09-12T13:28:35;94837.88;;;27.09;30.93
14393;BME280;7281;42.678;23.372;2022-09-12T13:31:22;94836.91;;;26.52;31.58
14393;BME280;7281;42.678;23.372;2022-09-12T13:33:53;94840.75;;;26.96;30.67
14393;BME280;7281;42.678;23.372;2022-09-12T13:36:25;94832.25;;;26.49;30.80
14393;BME280;7281;42.678;23.372;2022-09-12T13:39:16;94836.91;;;26.97;30.27
14393;BME280;7281;42.678;23.372;2022-09-12T13:45:00;94836.97;;;27.24;29.44
14393;BME280;7281;42.678;23.372;2022-09-12T13:47:38;94836.78;;;26.45;30.05
14393;BME280;7281;42.678;23.372;2022-09-12T13:50:11;94831.72;;;27.08;29.71
14393;BME280;7281;42.678;23.372;2022-09-12T13:52:45;94825.72;;;27.41;29.82
14393;BME280;7281;42.678;23.372;2022-09-12T13:55:28;94834.03;;;26.23;31.23
14393;BME280;7281;42.678;23.372;2022-09-12T13:58:05;94842.50;;;25.86;31.84
14393;BME280;7281;42.678;23.372;2022-09-12T14:00:33;94845.41;;;25.78;31.97
14393;BME280;7281;42.678;23.372;2022-09-12T14:03:11;94832.56;;;26.06;31.29
14393;BME280;7281;42.678;23.372;2022-09-12T14:05:58;94829.63;;;26.34;31.06
14393;BME280;7281;42.678;23.372;2022-09-12T14:08:24;94827.16;;;27.61;28.86
14393;BME280;7281;42.678;23.372;2022-09-12T14:10:52;94833.66;;;27.34;29.24
14393;BME280;7281;42.678;23.372;2022-09-12T14:13:23;94824.56;;;27.97;28.57
14393;BME280;7281;42.678;23.372;2022-09-12T14:15:52;94818.50;;;28.04;28.38
14393;BME280;7281;42.678;23.372;2022-09-12T14:18:26;94818.56;;;28.11;28.25
14393;BME280;7281;42.678;23.372;2022-09-12T14:21:00;94822.72;;;27.23;29.06
14393;BME280;7281;42.678;23.372;2022-09-12T14:23:41;94833.22;;;26.60;30.33
14393;BME280;7281;42.678;23.372;2022-09-12T14:26:12;94842.19;;;26.90;30.16
14393;BME280;7281;42.678;23.372;2022-09-12T14:28:41;94835.19;;;27.31;30.03
14393;BME280;7281;42.678;23.372;2022-09-12T14:33:56;94824.75;;;27.30;30.04
14393;BME280;7281;42.678;23.372;2022-09-12T14:36:36;94827.50;;;27.89;29.90
14393;BME280;7281;42.678;23.372;2022-09-12T14:39:38;94838.91;;;27.00;30.66
14393;BME280;7281;42.678;23.372;2022-09-12T14:42:17;94828.22;;;26.01;31.83
14393;BME280;7281;42.678;23.372;2022-09-12T14:44:55;94833.69;;;26.88;30.91
14393;BME280;7281;42.678;23.372;2022-09-12T14:47:25;94828.72;;;26.45;31.53
14393;BME280;7281;42.678;23.372;2022-09-12T14:49:53;94839.03;;;25.67;33.13
14393;BME280;7281;42.678;23.372;2022-09-12T14:55:02;94844.34;;;26.81;30.75
14393;BME280;7281;42.678;23.372;2022-09-12T15:02:38;94838.84;;;26.74;30.94
14393;BME280;7281;42.678;23.372;2022-09-12T15:07:37;94847.13;;;26.66;31.35
14393;BME280;7281;42.678;23.372;2022-09-12T15:15:45;94843.16;;;25.80;32.21
14393;BME280;7281;42.678;23.372;2022-09-12T15:18:12;94840.88;;;25.82;32.60
14393;BME280;7281;42.678;23.372;2022-09-12T15:20:42;94842.78;;;25.81;32.64
14393;BME280;7281;42.678;23.372;2022-09-12T15:23:58;94847.22;;;25.24;33.56
14393;BME280;7281;42.678;23.372;2022-09-12T15:26:01;94836.06;;;25.72;32.77
14393;BME280;7281;42.678;23.372;2022-09-12T15:28:29;94827.75;;;25.42;33.35
14393;BME280;7281;42.678;23.372;2022-09-12T15:31:03;94842.41;;;25.14;33.90
14393;BME280;7281;42.678;23.372;2022-09-12T15:33:30;94841.91;;;24.92;34.54
14393;BME280;7281;42.678;23.372;2022-09-12T15:35:57;94839.88;;;25.36;33.94
14393;BME280;7281;42.678;23.372;2022-09-12T15:38:25;94849.03;;;24.57;35.07
14393;BME280;7281;42.678;23.372;2022-09-12T15:40:53;94844.25;;;24.94;34.81
14393;BME280;7281;42.678;23.372;2022-09-12T15:43:21;94839.88;;;25.36;34.04
14393;BME280;7281;42.678;23.372;2022-09-12T15:45:49;94841.53;;;25.25;33.99
14393;BME280;7281;42.678;23.372;2022-09-12T15:48:18;94840.72;;;25.40;33.47
14393;BME280;7281;42.678;23.372;2022-09-12T15:50:46;94830.28;;;24.57;34.40
14393;BME280;7281;42.678;23.372;2022-09-12T15:53:15;94826.81;;;23.86;35.80